Terminal Aerodrome Forecast
Issued by NWS Cleveland, OH

Home | Current Version | Previous Version | Text Only | Print | Product List | Glossary On
Versions: 1 2 3 4 5 6 7 8 9 10 11 12 13 14
000
FTUS41 KCLE 312324
TAFERI
TAF
KERI 312324Z 0100/0124 27012G20KT P6SM VCSH SCT050 OVC100
      TEMPO 0100/0102 4SM SHRA BKN045 OVC080
     FM010300 26008KT P6SM SCT080
     FM011600 27012G20KT P6SM FEW050 SCT100
     FM012300 25008KT P6SM SCT100=

USA.gov is the U.S. government's official web portal to all federal, state and local government web resources and services.